Time;durP1;ratioP1;P1;durP2;ratioP2;P2;SDS_P1;SDS_P2;PMS_P1;PMS_P2;Temp;Humidity;BMP_temperature;BMP_pressure;BME280_temperature;BME280_humidity;BME280_pressure;Samples;Min_cycle;Max_cycle;Signal;HPM_P1;HPM_P2
2021/09/13 00:01:39;;;;;;;9.07;8.20;;;;;;;16.04;73.10;100986.97;5055164;28;20203;-82
2021/09/13 00:04:05;;;;;;;10.17;8.50;;;;;;;16.04;73.06;100994.19;5059127;28;20763;-82
2021/09/13 00:06:32;;;;;;;10.67;7.97;;;;;;;16.02;73.00;100982.69;5060962;28;20207;-82
2021/09/13 00:08:58;;;;;;;11.70;9.33;;;;;;;16.01;73.44;100991.75;5054836;28;20213;-82
2021/09/13 00:11:25;;;;;;;10.57;8.90;;;;;;;16.01;73.25;100989.91;5055756;28;20703;-82
2021/09/13 00:13:53;;;;;;;10.03;9.10;;;;;;;15.99;73.67;100991.84;5063052;28;20238;-81
2021/09/13 00:16:19;;;;;;;10.60;9.17;;;;;;;15.98;73.56;100998.19;5055223;28;20221;-80
2021/09/13 00:18:46;;;;;;;9.43;8.50;;;;;;;15.97;73.43;100996.50;5054858;28;20212;-81
2021/09/13 00:21:13;;;;;;;12.77;8.97;;;;;;;15.94;73.46;100994.09;5057044;28;20215;-81
2021/09/13 00:23:39;;;;;;;10.90;9.20;;;;;;;15.92;73.65;100996.88;5051761;28;20701;-81
2021/09/13 00:26:06;;;;;;;10.43;9.33;;;;;;;15.90;73.68;100996.16;5058640;28;20203;-81
2021/09/13 00:28:32;;;;;;;10.00;9.10;;;;;;;15.89;73.81;100991.75;5054831;28;20206;-81
2021/09/13 00:31:00;;;;;;;11.03;9.67;;;;;;;15.87;73.81;100999.06;5061492;28;20206;-81
2021/09/13 00:33:27;;;;;;;9.77;8.83;;;;;;;15.84;73.71;100991.25;5068945;28;20717;-81
2021/09/13 00:35:53;;;;;;;10.90;9.90;;;;;;;15.81;74.14;100994.19;5066230;28;20681;-81
2021/09/13 00:38:20;;;;;;;12.17;9.20;;;;;;;15.78;73.84;100996.25;5066449;28;20209;-84
2021/09/13 00:40:47;;;;;;;9.67;8.83;;;;;;;15.76;73.99;100999.09;5057261;28;20217;-81
2021/09/13 00:43:13;;;;;;;12.17;9.40;;;;;;;15.75;74.06;100999.22;5066644;28;20229;-82
2021/09/13 00:45:40;;;;;;;12.93;10.03;;;;;;;15.72;74.53;101003.00;5057057;28;20206;-82
2021/09/13 00:48:08;;;;;;;11.10;9.87;;;;;;;15.71;74.85;101001.28;5059627;28;20228;-82
2021/09/13 00:50:35;;;;;;;11.17;10.00;;;;;;;15.69;74.62;101000.53;5057564;28;20543;-81
2021/09/13 00:53:02;;;;;;;11.27;10.20;;;;;;;15.67;74.78;100999.81;5051699;28;20222;-82
2021/09/13 00:55:29;;;;;;;11.43;10.23;;;;;;;15.66;74.69;101000.78;5055497;28;20610;-82
2021/09/13 00:57:55;;;;;;;11.03;10.03;;;;;;;15.67;75.12;100993.56;5052328;28;20217;-81
2021/09/13 01:00:23;;;;;;;12.47;10.93;;;;;;;15.67;75.03;101005.19;5052866;28;20205;-81
2021/09/13 01:02:49;;;;;;;12.43;11.20;;;;;;;15.66;75.46;101003.47;5055408;28;20236;-81
2021/09/13 01:05:18;;;;;;;13.30;10.77;;;;;;;15.66;75.54;100998.09;5056979;28;20198;-80
2021/09/13 01:07:44;;;;;;;11.90;10.60;;;;;;;15.66;75.66;100998.09;5051199;28;20290;-82
2021/09/13 01:10:11;;;;;;;10.40;9.47;;;;;;;15.65;75.57;100999.06;5056507;28;20612;-82
2021/09/13 01:12:38;;;;;;;11.77;10.07;;;;;;;15.65;75.60;100996.38;5053462;28;20230;-82
2021/09/13 01:15:06;;;;;;;11.27;10.17;;;;;;;15.65;75.79;100992.84;5059414;28;20219;-82
2021/09/13 01:17:33;;;;;;;11.90;10.43;;;;;;;15.63;75.68;100988.44;5059656;28;20205;-82
2021/09/13 01:20:00;;;;;;;12.40;10.57;;;;;;;15.62;75.84;100996.63;5055806;28;20207;-82
2021/09/13 01:22:28;;;;;;;12.00;10.17;;;;;;;15.60;75.91;100995.88;5050472;28;20223;-82
2021/09/13 01:24:57;;;;;;;11.53;10.33;;;;;;;15.59;75.70;101002.22;5061331;28;20198;-82
2021/09/13 01:27:24;;;;;;;11.60;10.60;;;;;;;15.57;75.80;100998.84;5062120;28;20206;-83
2021/09/13 01:29:51;;;;;;;11.23;10.13;;;;;;;15.56;76.09;100997.13;5055836;28;20212;-83
2021/09/13 01:32:18;;;;;;;11.87;10.77;;;;;;;15.55;76.29;101008.81;5055325;28;20245;-82
2021/09/13 01:34:44;;;;;;;12.17;10.97;;;;;;;15.54;75.98;101005.25;5063658;28;20230;-81
2021/09/13 01:37:11;;;;;;;13.03;10.83;;;;;;;15.52;76.37;101006.34;5063940;28;20208;-81
2021/09/13 01:39:38;;;;;;;11.87;10.77;;;;;;;15.50;76.13;101006.47;5058529;28;20698;-81
2021/09/13 01:42:06;;;;;;;11.93;10.80;;;;;;;15.48;76.28;101011.09;5067450;28;20224;-81
2021/09/13 01:44:32;;;;;;;12.50;11.30;;;;;;;15.47;76.48;101012.06;5053478;28;20304;-82
2021/09/13 01:46:59;;;;;;;12.70;11.40;;;;;;;15.44;76.45;101006.94;5064412;28;20209;-81
2021/09/13 01:49:25;;;;;;;12.83;11.57;;;;;;;15.42;76.53;101005.34;5062885;28;20211;-82
2021/09/13 01:51:52;;;;;;;12.63;11.43;;;;;;;15.41;76.56;101014.38;5054216;28;20221;-82
2021/09/13 01:54:19;;;;;;;11.90;10.80;;;;;;;15.39;76.91;101013.66;5063517;28;20233;-82
2021/09/13 01:56:45;;;;;;;13.80;12.40;;;;;;;15.37;76.76;101012.91;5055098;28;20290;-82
2021/09/13 01:59:13;;;;;;;15.47;11.80;;;;;;;15.36;76.80;101008.53;5053008;28;20198;-81
2021/09/13 02:01:40;;;;;;;13.60;12.07;;;;;;;15.35;77.16;101009.50;5057275;28;20209;-82
2021/09/13 02:04:06;;;;;;;15.77;11.80;;;;;;;15.33;77.00;101017.66;5058433;28;20217;-82
2021/09/13 02:06:33;;;;;;;12.47;11.27;;;;;;;15.33;77.25;101019.50;5066152;28;20292;-82
2021/09/13 02:08:59;;;;;;;13.03;11.70;;;;;;;15.31;77.11;101024.13;5075155;28;20231;-82
2021/09/13 02:11:26;;;;;;;12.80;11.50;;;;;;;15.29;77.47;101027.78;5070022;28;20202;-82
2021/09/13 02:13:53;;;;;;;13.40;12.00;;;;;;;15.29;77.76;101025.09;5057539;28;20209;-82
2021/09/13 02:16:21;;;;;;;13.47;11.27;;;;;;;15.28;77.54;101026.06;5068533;28;20211;-80
2021/09/13 02:18:47;;;;;;;12.90;11.60;;;;;;;15.28;77.70;101026.06;5058830;28;20210;-81
2021/09/13 02:21:14;;;;;;;12.27;11.13;;;;;;;15.27;77.88;101035.09;5071963;28;20697;-81
2021/09/13 02:23:40;;;;;;;14.00;12.00;;;;;;;15.25;77.96;101028.97;5064464;28;20229;-81
2021/09/13 02:26:07;;;;;;;13.43;11.93;;;;;;;15.24;77.81;101029.94;5057719;28;20198;-81
2021/09/13 02:28:34;;;;;;;13.23;11.90;;;;;;;15.24;77.83;101034.47;5069405;28;20208;-81
2021/09/13 02:31:00;;;;;;;13.13;11.90;;;;;;;15.21;77.64;101030.22;5056967;28;20203;-80
2021/09/13 02:33:28;;;;;;;15.20;11.77;;;;;;;15.19;78.15;101034.84;5056871;28;20233;-81
2021/09/13 02:35:55;;;;;;;13.07;11.83;;;;;;;15.18;77.74;101029.59;5052948;28;20243;-82
2021/09/13 02:38:21;;;;;;;13.70;12.27;;;;;;;15.15;78.05;101027.97;5065217;28;20587;-80
2021/09/13 02:40:48;;;;;;;13.20;11.80;;;;;;;15.13;77.79;101032.59;5077643;28;20205;-79
2021/09/13 02:43:14;;;;;;;13.23;11.93;;;;;;;15.12;77.65;101028.22;5058934;28;20226;-81
2021/09/13 02:45:41;;;;;;;13.03;11.67;;;;;;;15.11;78.09;101025.66;5057574;28;20206;-80
2021/09/13 02:48:07;;;;;;;13.23;11.80;;;;;;;15.09;77.76;101024.91;5060534;28;20203;-81
2021/09/13 02:50:35;;;;;;;12.43;10.83;;;;;;;15.08;78.06;101033.91;5062600;28;20205;-82
2021/09/13 02:53:02;;;;;;;13.73;12.33;;;;;;;15.06;78.09;101036.72;5057827;28;20229;-83
2021/09/13 02:55:28;;;;;;;11.77;10.00;;;;;;;15.04;78.25;101033.31;5060274;28;20329;-83
2021/09/13 02:57:55;;;;;;;11.73;10.23;;;;;;;15.04;78.30;101037.81;5058197;28;20202;-81
2021/09/13 03:00:22;;;;;;;12.50;11.20;;;;;;;15.02;78.01;101037.94;5057972;28;20209;-80
2021/09/13 03:02:49;;;;;;;12.47;11.37;;;;;;;15.00;77.74;101042.56;5056501;28;20240;-81
2021/09/13 03:05:15;;;;;;;12.77;11.33;;;;;;;14.99;77.93;101038.16;5057786;28;20206;-78
2021/09/13 03:07:43;;;;;;;12.50;11.37;;;;;;;14.97;78.11;101040.09;5056864;28;20210;-81
2021/09/13 03:10:11;;;;;;;12.83;11.80;;;;;;;14.94;78.22;101038.50;5057263;28;20209;-81
2021/09/13 03:12:37;;;;;;;13.77;12.57;;;;;;;14.91;78.07;101036.06;5057355;28;20703;-82
2021/09/13 03:15:07;;;;;;;14.37;12.47;;;;;;;14.90;78.31;101041.53;5056498;28;20221;-82
2021/09/13 03:17:34;;;;;;;13.27;12.03;;;;;;;14.86;78.36;101034.72;5056502;28;20212;-82
2021/09/13 03:20:00;;;;;;;14.70;12.50;;;;;;;14.85;78.21;101038.38;5061238;28;20584;-82
2021/09/13 03:22:27;;;;;;;15.77;12.90;;;;;;;14.83;78.48;101040.28;5063902;28;20233;-81
2021/09/13 03:24:55;;;;;;;15.97;13.67;;;;;;;14.81;78.04;101031.50;5066914;28;20583;-80
2021/09/13 03:27:22;;;;;;;15.17;13.60;;;;;;;14.79;78.56;101034.31;5059921;28;20288;-81
2021/09/13 03:29:48;;;;;;;16.47;13.17;;;;;;;14.77;78.75;101025.50;5061585;28;20678;-81
2021/09/13 03:32:15;;;;;;;15.77;13.37;;;;;;;14.75;78.75;101034.63;5060995;28;20231;-81
2021/09/13 03:34:41;;;;;;;13.57;12.27;;;;;;;14.73;78.40;101026.72;5065050;28;20226;-81
2021/09/13 03:37:08;;;;;;;15.50;13.33;;;;;;;14.70;79.07;101029.59;5056877;28;20212;-81
2021/09/13 03:39:36;;;;;;;16.67;13.00;;;;;;;14.69;78.74;101019.03;5056575;28;20683;-81
2021/09/13 03:42:05;;;;;;;13.90;12.57;;;;;;;14.65;78.89;101021.06;5056718;28;20644;-81
2021/09/13 03:44:31;;;;;;;15.20;13.70;;;;;;;14.60;78.66;101015.19;5056362;28;20200;-81
2021/09/13 03:46:58;;;;;;;16.63;14.30;;;;;;;14.53;78.42;101019.28;5058579;28;20556;-82
2021/09/13 03:49:24;;;;;;;14.77;13.40;;;;;;;14.41;78.23;101026.41;5066167;28;20206;-82
2021/09/13 03:51:51;;;;;;;16.20;14.57;;;;;;;14.32;77.72;101020.84;5062708;28;20226;-81
2021/09/13 03:54:17;;;;;;;16.47;14.77;;;;;;;14.22;77.78;101018.81;5055915;28;20209;-82
2021/09/13 03:56:44;;;;;;;15.93;14.40;;;;;;;14.13;77.60;101027.56;5053233;28;20554;-82
2021/09/13 03:59:12;;;;;;;15.53;13.97;;;;;;;14.06;78.00;101018.22;5061401;28;20202;-81
2021/09/13 04:01:38;;;;;;;15.30;13.77;;;;;;;14.01;77.95;101024.88;5062414;28;20211;-81
2021/09/13 04:04:06;;;;;;;17.37;14.07;;;;;;;13.94;77.65;101023.63;5059324;28;20301;-82
2021/09/13 04:06:41;;;;;;;15.20;13.60;;;;;;;13.85;78.00;101020.63;5036518;28;20228;-82
2021/09/13 04:11:53;;;;;;;15.40;14.00;;;;;;;13.78;78.10;101023.84;5058245;28;20226;-82
2021/09/13 04:14:22;;;;;;;15.63;14.13;;;;;;;13.73;78.46;101021.50;5060997;28;20197;-82
2021/09/13 04:16:49;;;;;;;16.13;14.50;;;;;;;13.69;78.16;101022.66;5050663;28;20201;-82
2021/09/13 04:19:16;;;;;;;15.57;13.60;;;;;;;13.68;78.65;101022.78;5060110;28;20207;-82
2021/09/13 04:21:42;;;;;;;15.20;13.73;;;;;;;13.65;78.76;101018.50;5051828;28;20202;-81
2021/09/13 04:24:09;;;;;;;14.47;13.17;;;;;;;13.63;78.84;101020.41;5060229;28;20196;-82
2021/09/13 04:26:36;;;;;;;14.83;13.30;;;;;;;13.62;79.04;101018.69;5054939;28;20200;-82
2021/09/13 04:29:03;;;;;;;15.53;14.03;;;;;;;13.61;78.80;101017.00;5056593;28;20202;-81
2021/09/13 04:31:31;;;;;;;14.63;13.20;;;;;;;13.60;78.84;101026.00;5060236;28;20209;-81
2021/09/13 04:33:58;;;;;;;14.57;13.17;;;;;;;13.58;78.52;101011.88;5057715;28;20798;-81
2021/09/13 04:36:24;;;;;;;13.23;12.00;;;;;;;13.57;78.68;101018.19;5050228;28;20233;-82
2021/09/13 04:38:51;;;;;;;12.60;11.43;;;;;;;13.57;78.74;101014.66;5050591;28;20206;-81
2021/09/13 04:41:17;;;;;;;15.07;13.30;;;;;;;13.54;78.66;101018.41;5050572;28;20570;-81
2021/09/13 04:43:44;;;;;;;15.00;13.60;;;;;;;13.51;79.15;101022.13;5057211;28;20808;-82
2021/09/13 04:46:11;;;;;;;15.17;13.63;;;;;;;13.46;78.82;101018.06;5048400;28;20210;-81
2021/09/13 04:48:39;;;;;;;15.03;13.57;;;;;;;13.41;78.54;101026.44;5065178;28;20368;-82
2021/09/13 04:51:05;;;;;;;14.17;12.77;;;;;;;13.37;78.71;101026.72;5070813;28;20212;-82
2021/09/13 04:53:32;;;;;;;16.13;13.80;;;;;;;13.31;78.63;101024.47;5057065;28;20225;-81
2021/09/13 04:55:59;;;;;;;16.27;13.77;;;;;;;13.24;79.06;101021.38;5065562;28;20229;-82
2021/09/13 04:58:25;;;;;;;15.40;13.13;;;;;;;13.18;79.22;101036.03;5061511;28;20239;-82
2021/09/13 05:00:52;;;;;;;14.70;13.30;;;;;;;13.15;79.39;101030.88;5050856;28;20236;-82
2021/09/13 05:03:18;;;;;;;15.30;12.90;;;;;;;13.13;79.23;101040.78;5056946;28;20233;-82
2021/09/13 05:05:46;;;;;;;14.73;13.23;;;;;;;13.13;79.54;101038.09;5049400;28;20288;-82
2021/09/13 05:08:13;;;;;;;13.77;12.17;;;;;;;13.13;80.06;101037.25;5053392;28;20300;-82
2021/09/13 05:10:39;;;;;;;15.23;12.27;;;;;;;13.14;80.07;101036.28;5060561;28;20205;-82
2021/09/13 05:13:06;;;;;;;15.30;12.30;;;;;;;13.17;80.71;101036.13;5055664;28;20727;-81
2021/09/13 05:15:33;;;;;;;12.47;11.27;;;;;;;13.17;80.31;101039.66;5049299;28;20228;-80
2021/09/13 05:17:59;;;;;;;15.33;11.93;;;;;;;13.15;80.34;101033.53;5052840;28;20198;-82
2021/09/13 05:20:26;;;;;;;13.30;10.37;;;;;;;13.16;81.10;101037.94;5048144;28;20216;-82
2021/09/13 05:22:53;;;;;;;10.30;9.30;;;;;;;13.22;81.36;101041.16;5042431;28;20232;-84
2021/09/13 05:25:21;;;;;;;11.90;10.67;;;;;;;13.29;81.58;101042.44;5049635;28;20205;-83
2021/09/13 05:27:48;;;;;;;11.40;9.80;;;;;;;13.33;81.85;101042.13;5052954;28;20738;-83
2021/09/13 05:30:15;;;;;;;11.80;9.83;;;;;;;13.36;81.86;101046.41;5051409;28;20206;-83
2021/09/13 05:32:42;;;;;;;10.30;9.20;;;;;;;13.39;81.77;101056.91;5052751;28;20221;-83
2021/09/13 05:35:09;;;;;;;12.43;10.03;;;;;;;13.42;82.17;101048.69;5050225;28;20230;-83
2021/09/13 05:37:36;;;;;;;12.33;10.53;;;;;;;13.47;82.76;101057.22;5057595;28;20205;-83
2021/09/13 05:40:06;;;;;;;13.70;10.13;;;;;;;13.51;82.70;101059.59;5060848;28;20209;-84
2021/09/13 05:42:32;;;;;;;14.00;11.67;;;;;;;13.55;82.82;101061.09;5056979;28;20218;-83
2021/09/13 05:44:59;;;;;;;14.37;11.07;;;;;;;13.61;83.49;101062.50;5064192;28;20643;-84
2021/09/13 05:47:26;;;;;;;13.13;11.60;;;;;;;13.63;83.17;101057.88;5061021;28;20651;-85
2021/09/13 05:49:53;;;;;;;14.10;11.20;;;;;;;13.67;83.52;101055.84;5058688;28;20205;-85
2021/09/13 05:52:19;;;;;;;13.23;11.77;;;;;;;13.70;83.20;101059.19;5051012;28;20229;-86
2021/09/13 05:54:46;;;;;;;16.43;11.27;;;;;;;13.75;83.72;101059.72;5052702;28;20197;-86
2021/09/13 05:57:14;;;;;;;14.90;12.87;;;;;;;13.78;83.49;101055.97;5054763;28;20316;-86
2021/09/13 05:59:40;;;;;;;13.67;12.20;;;;;;;13.81;83.92;101059.28;5055664;28;20681;-85
2021/09/13 06:02:07;;;;;;;12.00;10.90;;;;;;;13.83;83.82;101057.34;5052212;28;20236;-86
2021/09/13 06:04:33;;;;;;;13.03;11.63;;;;;;;13.86;83.63;101054.47;5055586;28;20209;-85
2021/09/13 06:07:00;;;;;;;13.53;11.77;;;;;;;13.90;83.85;101053.28;5052435;28;20221;-84
2021/09/13 06:09:27;;;;;;;15.13;12.20;;;;;;;13.94;84.01;101059.28;5065008;28;20292;-84
2021/09/13 06:11:56;;;;;;;17.97;12.90;;;;;;;13.97;84.44;101056.41;5063693;28;20320;-84
2021/09/13 06:14:24;;;;;;;15.90;11.13;;;;;;;14.02;84.18;101058.72;5066519;28;20213;-84
2021/09/13 06:16:51;;;;;;;14.07;10.50;;;;;;;14.05;84.37;101045.13;5063645;28;20221;-84
2021/09/13 06:19:17;;;;;;;12.73;10.20;;;;;;;14.09;83.99;101065.38;5055129;28;20618;-83
2021/09/13 06:21:44;;;;;;;10.70;9.60;;;;;;;14.11;84.14;101058.09;5055825;28;20219;-83
2021/09/13 06:24:10;;;;;;;12.43;8.90;;;;;;;14.15;84.23;101056.91;5056200;28;20216;-83
2021/09/13 06:26:37;;;;;;;12.23;9.30;;;;;;;14.18;84.58;101065.56;5055873;28;20223;-83
2021/09/13 06:29:03;;;;;;;15.03;9.97;;;;;;;14.23;84.46;101062.56;5056535;28;20210;-83
2021/09/13 06:31:31;;;;;;;10.30;9.23;;;;;;;14.30;84.47;101069.19;5057024;28;20221;-83
2021/09/13 06:33:58;;;;;;;11.53;9.83;;;;;;;14.35;84.58;101072.38;5056219;28;20209;-83
2021/09/13 06:36:26;;;;;;;17.50;11.13;;;;;;;14.39;84.33;101071.19;5056495;28;20226;-83
2021/09/13 06:38:53;;;;;;;12.13;10.50;;;;;;;14.46;84.70;101077.00;5062700;28;20205;-83
2021/09/13 06:41:19;;;;;;;12.10;10.60;;;;;;;14.50;84.49;101071.31;5063086;28;20292;-83
2021/09/13 06:43:47;;;;;;;11.40;9.50;;;;;;;14.57;84.74;101075.25;5056782;28;20232;-83
2021/09/13 06:46:20;;;;;;;10.17;9.10;;;;;;;14.66;84.55;101078.22;5056877;28;20711;-83
2021/09/13 06:48:48;;;;;;;11.40;8.40;;;;;;;14.74;84.44;101079.34;5057282;28;20236;-84
2021/09/13 06:51:15;;;;;;;9.67;8.37;;;;;;;14.84;84.46;101087.59;5060708;28;20197;-84
2021/09/13 06:53:42;;;;;;;10.40;7.57;;;;;;;14.90;84.43;101079.94;5075110;28;20229;-84
2021/09/13 06:56:08;;;;;;;9.50;7.10;;;;;;;15.01;84.22;101078.28;5073189;28;20214;-84
2021/09/13 06:58:36;;;;;;;8.50;6.73;;;;;;;15.08;84.28;101083.06;5056322;28;20640;-84
2021/09/13 07:01:03;;;;;;;11.73;6.80;;;;;;;15.15;84.02;101089.69;5058742;28;20205;-84
2021/09/13 07:03:30;;;;;;;9.67;6.27;;;;;;;15.22;83.78;101092.78;5073774;28;20235;-84
2021/09/13 07:05:58;;;;;;;6.97;5.60;;;;;;;15.26;83.52;101089.72;5057296;28;20201;-84
2021/09/13 07:08:25;;;;;;;7.80;5.83;;;;;;;15.33;83.17;101100.00;5061473;28;20206;-84
2021/09/13 07:10:51;;;;;;;7.30;5.10;;;;;;;15.38;82.98;101100.50;5048232;28;20211;-84
2021/09/13 07:13:18;;;;;;;7.80;5.73;;;;;;;15.41;82.93;101103.78;5055086;28;20230;-82
2021/09/13 07:15:44;;;;;;;7.17;5.63;;;;;;;15.46;82.58;101103.44;5055055;28;20230;-82
2021/09/13 07:18:12;;;;;;;9.93;6.20;;;;;;;15.50;82.50;101110.31;5055842;28;20578;-87
2021/09/13 07:20:39;;;;;;;5.90;5.33;;;;;;;15.53;82.30;101102.03;5060536;28;20201;-89
2021/09/13 07:23:07;;;;;;;7.43;5.07;;;;;;;15.57;82.21;101109.75;5057015;28;20590;-87
2021/09/13 07:25:33;;;;;;;5.20;4.67;;;;;;;15.65;82.15;101109.16;5061813;28;20202;-86
2021/09/13 07:28:00;;;;;;;8.57;5.13;;;;;;;15.70;81.73;101108.81;5050861;28;20208;-88
2021/09/13 07:30:27;;;;;;;6.37;5.03;;;;;;;15.74;81.47;101119.19;5061318;28;20571;-84
2021/09/13 07:32:54;;;;;;;6.87;5.27;;;;;;;15.79;81.09;101122.34;5054211;28;20580;-82
2021/09/13 07:35:21;;;;;;;4.97;4.40;;;;;;;15.85;80.98;101111.16;5050059;28;20290;-83
2021/09/13 07:37:47;;;;;;;7.27;5.10;;;;;;;15.93;80.99;101113.25;5053441;28;20225;-84
2021/09/13 07:40:15;;;;;;;7.00;4.27;;;;;;;16.00;80.61;101113.59;5061798;28;20301;-85
2021/09/13 07:42:43;;;;;;;8.73;4.20;;;;;;;16.03;79.86;101113.38;5052604;28;20290;-84
2021/09/13 07:45:11;;;;;;;5.60;3.20;;;;;;;16.06;79.53;101116.69;5054955;28;20199;-84
2021/09/13 07:47:37;;;;;;;5.50;4.60;;;;;;;16.11;79.15;101119.00;5049636;28;20222;-85
2021/09/13 07:50:05;;;;;;;6.17;4.53;;;;;;;16.15;79.10;101124.00;5052113;28;20616;-85
2021/09/13 07:52:32;;;;;;;5.10;4.60;;;;;;;16.21;78.65;101119.97;5060949;28;20231;-84
2021/09/13 07:54:58;;;;;;;6.63;4.80;;;;;;;16.25;78.60;101124.13;5058837;28;20214;-84
2021/09/13 07:57:26;;;;;;;6.30;5.10;;;;;;;16.29;78.20;101125.63;5058530;28;20234;-84
2021/09/13 07:59:54;;;;;;;6.13;5.53;;;;;;;16.32;77.89;101128.88;5062584;28;20635;-85
2021/09/13 08:02:20;;;;;;;7.80;5.33;;;;;;;16.38;78.06;101132.94;5051047;28;20601;-84
2021/09/13 08:04:47;;;;;;;5.90;5.27;;;;;;;16.44;77.64;101136.97;5052366;28;20198;-84
2021/09/13 08:07:13;;;;;;;5.80;5.07;;;;;;;16.48;77.64;101133.06;5056883;28;20214;-84
2021/09/13 08:09:40;;;;;;;6.13;5.53;;;;;;;16.53;77.46;101141.59;5051930;28;20204;-84
2021/09/13 08:12:07;;;;;;;6.20;5.43;;;;;;;16.59;77.35;101146.47;5053039;28;20310;-85
2021/09/13 08:14:35;;;;;;;7.17;6.00;;;;;;;16.63;77.24;101146.16;5055341;28;20214;-85
2021/09/13 08:17:02;;;;;;;9.27;6.37;;;;;;;16.69;77.00;101149.31;5053980;28;20219;-84
2021/09/13 08:19:29;;;;;;;8.60;6.33;;;;;;;16.74;77.11;101156.03;5068927;28;20208;-85
2021/09/13 08:21:55;;;;;;;7.13;5.20;;;;;;;16.81;77.00;101149.19;5053932;28;20228;-84
2021/09/13 08:24:22;;;;;;;7.80;6.07;;;;;;;16.87;76.86;101159.44;5072614;28;20258;-84
2021/09/13 08:26:48;;;;;;;10.10;5.73;;;;;;;16.93;76.83;101156.25;5060825;28;20207;-84
2021/09/13 08:29:17;;;;;;;6.43;5.73;;;;;;;16.99;76.55;101161.13;5059160;28;20229;-84
2021/09/13 08:31:47;;;;;;;6.10;5.50;;;;;;;17.05;76.51;101173.22;5047683;28;20209;-82
2021/09/13 08:34:16;;;;;;;5.67;5.03;;;;;;;17.10;76.31;101168.31;5063616;28;20286;-85
2021/09/13 08:36:43;;;;;;;4.97;4.50;;;;;;;17.14;76.08;101175.16;5053240;28;20715;-83
2021/09/13 08:39:09;;;;;;;5.17;4.60;;;;;;;17.20;76.15;101166.56;5041178;28;20283;-84
2021/09/13 08:41:36;;;;;;;5.57;5.07;;;;;;;17.25;75.84;101176.94;5053738;28;20211;-84
2021/09/13 08:44:03;;;;;;;7.10;5.87;;;;;;;17.27;75.91;101183.91;5046830;28;20204;-83
2021/09/13 08:46:38;;;;;;;6.50;4.90;;;;;;;17.33;75.89;101180.72;5061089;28;20202;-83
2021/09/13 08:49:09;;;;;;;5.37;4.40;;;;;;;17.42;75.59;101183.63;5056683;28;20586;-83
2021/09/13 08:51:36;;;;;;;5.70;5.07;;;;;;;17.48;75.30;101188.50;5059316;28;20230;-84
2021/09/13 08:54:06;;;;;;;4.10;3.40;;;;;;;17.55;75.26;101184.31;5044014;28;20237;-84
2021/09/13 08:56:40;;;;;;;3.50;2.93;;;;;;;17.63;74.85;101184.50;5061279;28;20237;-84
2021/09/13 08:59:12;;;;;;;3.77;2.97;;;;;;;17.72;74.31;101182.94;5069954;28;20669;-84
2021/09/13 09:01:39;;;;;;;5.33;3.60;;;;;;;17.79;74.17;101190.34;5051379;28;20299;-84
2021/09/13 09:04:08;;;;;;;4.40;3.03;;;;;;;17.89;73.99;101188.59;5054841;28;20245;-84
2021/09/13 09:06:36;;;;;;;3.20;2.33;;;;;;;17.96;73.41;101186.22;5058080;28;20631;-84
2021/09/13 09:09:06;;;;;;;4.07;2.50;;;;;;;18.04;72.84;101192.66;5063599;28;20212;-84
2021/09/13 09:11:57;;;;;;;5.60;3.20;;;;;;;18.12;72.62;101193.81;5059729;28;20211;-85
2021/09/13 09:14:38;;;;;;;5.20;3.10;;;;;;;18.17;71.93;101196.97;5054358;28;20294;-83
2021/09/13 09:17:07;;;;;;;4.43;3.13;;;;;;;18.23;71.65;101194.63;5057031;28;20234;-83
2021/09/13 09:19:35;;;;;;;3.03;2.70;;;;;;;18.31;71.71;101202.03;5066206;28;20212;-84
2021/09/13 09:22:23;;;;;;;4.67;3.13;;;;;;;18.43;71.62;101194.72;5053467;28;20224;-85
2021/09/13 09:24:51;;;;;;;3.93;2.90;;;;;;;18.51;71.21;101203.00;5060389;28;20629;-84
2021/09/13 09:27:18;;;;;;;3.57;2.83;;;;;;;18.56;70.81;101204.31;5058431;28;20204;-84
2021/09/13 09:29:45;;;;;;;2.97;2.40;;;;;;;18.65;70.61;101210.75;5058514;28;20209;-84
2021/09/13 09:32:20;;;;;;;3.67;2.40;;;;;;;18.72;70.12;101206.53;5050905;28;20227;-85
2021/09/13 09:34:48;;;;;;;4.30;2.50;;;;;;;18.81;69.56;101210.28;5051249;28;20661;-84
2021/09/13 09:37:15;;;;;;;4.53;2.40;;;;;;;18.91;69.60;101208.44;5054550;28;20227;-84
2021/09/13 09:39:44;;;;;;;4.70;2.70;;;;;;;18.99;68.98;101214.84;5057934;28;20205;-86
2021/09/13 09:42:13;;;;;;;2.53;2.20;;;;;;;19.07;68.67;101211.47;5057654;28;20236;-84
2021/09/13 09:44:44;;;;;;;3.70;2.13;;;;;;;19.15;68.32;101216.19;5062489;28;20204;-85
2021/09/13 09:47:13;;;;;;;3.13;2.43;;;;;;;19.23;68.04;101214.50;5063877;28;20679;-86
2021/09/13 09:49:42;;;;;;;6.60;2.33;;;;;;;19.28;67.47;101209.53;5061393;28;20244;-85
2021/09/13 09:52:10;;;;;;;3.73;2.40;;;;;;;19.31;67.19;101209.25;5051943;28;20303;-85
2021/09/13 09:54:36;;;;;;;3.57;2.20;;;;;;;19.32;66.86;101210.97;5053857;28;20650;-85
2021/09/13 09:57:05;;;;;;;4.10;2.40;;;;;;;19.32;66.52;101215.50;5059282;28;20351;-85
2021/09/13 09:59:34;;;;;;;4.47;2.53;;;;;;;19.33;66.98;101206.41;5051123;28;20207;-85
2021/09/13 10:02:01;;;;;;;5.50;3.30;;;;;;;19.32;67.83;101205.56;5058917;28;20233;-85
2021/09/13 10:04:29;;;;;;;5.40;3.50;;;;;;;19.34;68.03;101203.59;5054703;28;20286;-85
2021/09/13 10:06:57;;;;;;;4.20;3.50;;;;;;;19.34;68.21;101198.19;5047426;28;20287;-86
2021/09/13 10:09:27;;;;;;;8.07;3.60;;;;;;;19.31;68.54;101200.31;5053365;28;20214;-83
2021/09/13 10:11:56;;;;;;;6.20;2.90;;;;;;;19.28;68.82;101204.13;5068605;28;20222;-84
2021/09/13 10:14:24;;;;;;;5.63;2.83;;;;;;;19.27;68.80;101205.13;5052630;28;20208;-84
2021/09/13 10:16:52;;;;;;;5.47;2.90;;;;;;;19.23;68.70;101200.13;5054728;28;20228;-84
2021/09/13 10:19:20;;;;;;;4.97;2.53;;;;;;;19.19;68.44;101188.75;5056103;28;20210;-83
2021/09/13 10:21:47;;;;;;;4.93;2.77;;;;;;;19.16;68.56;101194.44;5054035;28;20231;-83
2021/09/13 10:24:17;;;;;;;4.53;2.70;;;;;;;19.16;68.67;101193.59;5056283;28;20211;-84
2021/09/13 10:26:49;;;;;;;6.27;2.80;;;;;;;19.17;68.95;101198.84;5054122;28;20214;-84
2021/09/13 10:29:22;;;;;;;8.80;3.20;;;;;;;19.20;68.90;101201.25;5053917;28;20207;-84
2021/09/13 10:31:57;;;;;;;4.50;2.87;;;;;;;19.24;68.78;101200.00;5055751;28;20961;-84
2021/09/13 10:34:26;;;;;;;5.13;3.10;;;;;;;19.25;68.73;101188.19;5060657;28;20575;-84
2021/09/13 10:37:11;;;;;;;5.33;3.10;;;;;;;19.27;68.52;101190.75;5049201;28;20700;-84
2021/09/13 10:39:59;;;;;;;5.07;2.73;;;;;;;19.29;68.04;101194.19;5053504;28;20210;-84
2021/09/13 10:42:46;;;;;;;4.83;3.30;;;;;;;19.31;68.30;101192.19;5052886;28;20768;-83
2021/09/13 10:45:21;;;;;;;5.87;3.23;;;;;;;19.35;68.31;101194.44;5051359;28;20290;-84
2021/09/13 10:48:02;;;;;;;7.40;3.30;;;;;;;19.39;68.07;101193.19;5066334;28;20272;-80
2021/09/13 10:50:35;;;;;;;7.30;3.50;;;;;;;19.43;68.07;101202.72;5058560;28;20193;-79
2021/09/13 10:53:03;;;;;;;6.97;3.10;;;;;;;19.50;68.13;101199.50;5056302;28;20235;-79
2021/09/13 10:55:37;;;;;;;8.27;3.73;;;;;;;19.57;68.30;101203.31;5056431;28;20209;-80
2021/09/13 10:58:12;;;;;;;6.40;3.80;;;;;;;19.62;67.70;101206.47;5057354;28;20249;-80
2021/09/13 11:01:00;;;;;;;6.60;3.80;;;;;;;19.64;67.55;101207.19;5056404;28;20190;-79
2021/09/13 11:03:32;;;;;;;7.47;3.80;;;;;;;19.65;67.29;101204.34;5056799;28;20238;-79
2021/09/13 11:06:25;;;;;;;9.47;4.03;;;;;;;19.69;67.17;101197.66;5056966;28;20211;-79
2021/09/13 11:08:53;;;;;;;6.87;4.03;;;;;;;19.73;66.90;101190.09;5056161;28;20191;-80
2021/09/13 11:11:25;;;;;;;5.67;3.67;;;;;;;19.76;66.35;101192.50;5056737;28;20238;-80
2021/09/13 11:13:58;;;;;;;6.47;3.93;;;;;;;19.74;66.14;101189.94;5057159;28;20217;-79
2021/09/13 11:16:26;;;;;;;9.43;3.63;;;;;;;19.75;66.20;101191.66;5055947;28;20189;-79
2021/09/13 11:18:53;;;;;;;10.03;3.70;;;;;;;19.76;65.96;101193.38;5055850;28;20231;-80
2021/09/13 11:21:25;;;;;;;6.40;3.53;;;;;;;19.77;65.14;101192.38;5056322;28;20231;-79
2021/09/13 11:23:54;;;;;;;7.07;3.20;;;;;;;19.75;64.92;101194.38;5056756;28;20282;-78